createdAt,value
2018-08-18T00:04:09.284Z,57.70
2018-08-18T00:09:13.483Z,57.90
2018-08-18T00:14:18.015Z,58.20
2018-08-18T00:19:23.788Z,58.10
2018-08-18T00:24:28.779Z,57.90
2018-08-18T00:29:41.208Z,57.80
2018-08-18T00:34:57.957Z,57.70
2018-08-18T00:40:12.980Z,57.20
2018-08-18T00:45:20.173Z,57.30
2018-08-18T00:50:37.827Z,57.60
2018-08-18T00:55:43.999Z,57.60
2018-08-18T01:00:52.855Z,58.30
2018-08-18T01:06:04.218Z,57.80
2018-08-18T01:11:10.186Z,57.90
2018-08-18T01:16:15.748Z,58.30
2018-08-18T01:21:20.011Z,58.20
2018-08-18T01:26:26.956Z,58.30
2018-08-18T01:31:31.733Z,58.40
2018-08-18T01:36:39.020Z,59.00
2018-08-18T01:41:45.711Z,58.80
2018-08-18T01:46:54.723Z,59.00
2018-08-18T01:52:01.596Z,59.40
2018-08-18T01:57:08.879Z,59.40
2018-08-18T02:02:20.642Z,59.70
2018-08-18T02:07:27.562Z,59.80
2018-08-18T02:12:32.729Z,60.00
2018-08-18T02:17:42.967Z,60.00
2018-08-18T02:22:49.455Z,60.40
2018-08-18T02:27:58.041Z,60.30
2018-08-18T02:33:03.504Z,60.70
2018-08-18T02:38:07.202Z,60.30
2018-08-18T02:43:29.714Z,60.60
2018-08-18T02:48:35.238Z,61.00
2018-08-18T02:53:40.302Z,61.90
2018-08-18T02:58:48.542Z,61.10
2018-08-18T03:03:54.510Z,61.30
2018-08-18T03:09:00.640Z,61.20
2018-08-18T03:14:06.896Z,61.90
2018-08-18T03:19:16.105Z,61.90
2018-08-18T03:24:22.946Z,62.50
2018-08-18T03:29:31.050Z,62.20
2018-08-18T03:34:35.925Z,62.60
2018-08-18T03:39:40.719Z,62.60
2018-08-18T03:44:56.259Z,62.50
2018-08-18T03:50:00.375Z,62.20
2018-08-18T03:55:05.718Z,62.90
2018-08-18T04:00:10.998Z,62.80
2018-08-18T04:05:16.937Z,63.00
2018-08-18T04:10:24.014Z,63.60
2018-08-18T04:15:29.812Z,63.20
2018-08-18T04:20:36.107Z,63.40
2018-08-18T04:25:40.364Z,63.60
2018-08-18T04:30:43.900Z,63.40
2018-08-18T04:35:52.367Z,63.60
2018-08-18T04:40:56.486Z,64.00
2018-08-18T04:46:00.139Z,63.80
2018-08-18T04:51:03.833Z,64.00
2018-08-18T04:56:07.567Z,64.10
2018-08-18T05:01:12.207Z,63.80
2018-08-18T05:06:16.924Z,63.80
2018-08-18T05:11:22.037Z,63.80
2018-08-18T05:16:31.334Z,64.10
2018-08-18T05:21:35.138Z,64.30
2018-08-18T05:26:40.654Z,64.20
2018-08-18T05:31:44.488Z,65.10
2018-08-18T05:36:47.862Z,65.20
2018-08-18T05:41:53.631Z,65.30
2018-08-18T05:46:56.930Z,65.00
2018-08-18T05:52:00.595Z,64.80
2018-08-18T05:57:04.854Z,65.00
2018-08-18T06:02:09.926Z,65.40
2018-08-18T06:07:13.995Z,65.40
2018-08-18T06:12:21.594Z,65.10
2018-08-18T06:17:30.457Z,65.20
2018-08-18T06:22:34.963Z,64.30
2018-08-18T06:27:38.609Z,64.20
2018-08-18T06:32:42.344Z,63.20
2018-08-18T06:37:50.915Z,62.60
2018-08-18T06:42:55.079Z,62.20
2018-08-18T06:48:33.048Z,62.20
2018-08-18T06:53:45.331Z,61.10
2018-08-18T06:58:50.053Z,60.30
2018-08-18T07:03:55.096Z,59.70
2018-08-18T07:08:59.350Z,59.00
2018-08-18T07:14:05.392Z,58.30
2018-08-18T07:19:12.794Z,57.90
2018-08-18T07:24:17.755Z,57.10
2018-08-18T07:29:25.326Z,56.60
2018-08-18T07:34:31.650Z,56.00
2018-08-18T07:39:47.887Z,55.00
2018-08-18T07:44:54.411Z,54.10
2018-08-18T07:50:09.772Z,53.70
2018-08-18T07:55:17.468Z,52.40
2018-08-18T08:00:25.765Z,52.60
2018-08-18T08:05:46.829Z,53.10
2018-08-18T08:11:27.588Z,52.10
2018-08-18T08:16:37.394Z,51.70
2018-08-18T08:21:48.328Z,51.20
2018-08-18T08:26:54.007Z,50.60
2018-08-18T08:31:59.760Z,49.80
2018-08-18T08:37:05.775Z,48.50
2018-08-18T08:42:13.344Z,48.70
2018-08-18T08:47:18.484Z,48.70
2018-08-18T08:52:34.189Z,48.80
2018-08-18T08:57:40.571Z,48.40
2018-08-18T09:02:43.753Z,47.60
2018-08-18T09:07:49.521Z,47.00
2018-08-18T09:12:55.730Z,46.70
2018-08-18T09:18:01.275Z,46.40
2018-08-18T09:23:08.527Z,46.20
2018-08-18T09:28:15.858Z,46.20
2018-08-18T09:33:25.327Z,44.80
2018-08-18T09:38:35.714Z,45.60
2018-08-18T09:43:40.975Z,43.40
2018-08-18T09:48:46.359Z,45.80
2018-08-18T09:53:50.509Z,45.90
2018-08-18T09:58:55.037Z,46.00
2018-08-18T10:03:59.680Z,45.90
2018-08-18T10:09:07.809Z,45.70
2018-08-18T10:14:12.577Z,45.40
2018-08-18T10:19:17.483Z,44.80
2018-08-18T10:24:21.873Z,45.00
2018-08-18T10:29:26.805Z,43.90
2018-08-18T10:34:31.937Z,44.60
2018-08-18T10:39:38.482Z,44.20
2018-08-18T10:44:49.376Z,43.50
2018-08-18T10:50:04.122Z,43.60
2018-08-18T10:55:15.973Z,43.10
2018-08-18T11:00:25.848Z,43.50
2018-08-18T11:05:30.478Z,43.30
2018-08-18T11:10:40.687Z,43.20
2018-08-18T11:15:46.831Z,43.30
2018-08-18T11:20:51.500Z,42.30
2018-08-18T11:25:57.226Z,42.40
2018-08-18T11:31:01.170Z,41.90
2018-08-18T11:36:07.950Z,42.30
2018-08-18T11:41:12.931Z,41.20
2018-08-18T11:46:18.231Z,41.50
2018-08-18T11:51:27.502Z,40.60
2018-08-18T11:56:33.757Z,40.00
2018-08-18T12:01:40.542Z,39.80
2018-08-18T12:06:50.266Z,39.90
2018-08-18T12:11:55.637Z,40.30
2018-08-18T12:17:00.396Z,38.50
2018-08-18T12:22:04.467Z,38.60
2018-08-18T12:27:13.726Z,38.40
2018-08-18T12:32:25.479Z,38.70
2018-08-18T12:37:30.818Z,38.80
2018-08-18T12:42:34.635Z,39.30
2018-08-18T12:47:48.331Z,38.40
2018-08-18T12:52:52.306Z,38.90
2018-08-18T12:57:56.974Z,38.40
2018-08-18T13:03:01.860Z,37.90
2018-08-18T13:08:06.352Z,37.90
2018-08-18T13:13:12.393Z,37.80
2018-08-18T13:18:17.302Z,37.10
2018-08-18T13:23:24.816Z,37.70
2018-08-18T13:28:29.747Z,36.70
2018-08-18T13:33:37.666Z,36.90
2018-08-18T13:38:42.814Z,37.00
2018-08-18T13:43:48.218Z,37.00
2018-08-18T13:48:57.847Z,37.10
2018-08-18T13:54:04.194Z,36.70
2018-08-18T13:59:09.009Z,36.90
2018-08-18T14:04:19.971Z,37.20
2018-08-18T14:09:24.010Z,36.90
2018-08-18T14:14:27.966Z,36.60
2018-08-18T14:19:31.086Z,35.90
2018-08-18T14:24:36.224Z,37.20
2018-08-18T14:29:42.887Z,36.80
2018-08-18T14:35:19.226Z,36.90
2018-08-18T14:40:22.364Z,36.80
2018-08-18T14:45:26.322Z,37.80
2018-08-18T14:50:30.564Z,38.10
2018-08-18T14:55:33.715Z,38.50
2018-08-18T15:00:36.870Z,38.90
2018-08-18T15:05:40.021Z,39.10
2018-08-18T15:10:45.384Z,39.90
2018-08-18T15:15:48.597Z,40.60
2018-08-18T15:20:51.650Z,41.10
2018-08-18T15:25:54.789Z,41.90
2018-08-18T15:30:58.177Z,42.20
2018-08-18T15:36:01.304Z,42.30
2018-08-18T15:41:04.481Z,42.60
2018-08-18T15:46:07.648Z,42.30
2018-08-18T15:51:10.789Z,42.10
2018-08-18T15:56:13.938Z,42.20
2018-08-18T16:01:17.318Z,42.80
2018-08-18T16:06:20.459Z,43.10
2018-08-18T16:11:23.757Z,45.20
2018-08-18T16:16:26.906Z,47.20
2018-08-18T16:21:31.560Z,50.20
2018-08-18T16:26:34.705Z,51.80
2018-08-18T16:31:37.833Z,52.00
2018-08-18T16:36:46.021Z,52.70
2018-08-18T16:41:49.142Z,52.50
2018-08-18T16:46:52.280Z,50.70
2018-08-18T16:51:58.994Z,50.50
2018-08-18T16:57:02.137Z,50.70
2018-08-18T17:02:06.200Z,49.70
2018-08-18T17:07:14.717Z,50.20
2018-08-18T17:12:22.114Z,50.20
2018-08-18T17:17:25.681Z,50.30
2018-08-18T17:22:28.813Z,49.30
2018-08-18T17:27:32.020Z,49.60
2018-08-18T17:37:40.129Z,48.20
2018-08-18T17:42:43.268Z,49.00
2018-08-18T17:47:50.682Z,49.30
2018-08-18T17:52:53.865Z,49.80
2018-08-18T17:57:57.085Z,51.60
2018-08-18T18:03:01.372Z,53.90
2018-08-18T18:08:05.860Z,54.60
2018-08-18T18:13:16.382Z,56.40
2018-08-18T18:18:20.779Z,56.70
2018-08-18T18:23:24.148Z,56.50
2018-08-18T18:28:27.278Z,56.90
2018-08-18T18:33:30.518Z,56.70
2018-08-18T18:38:48.083Z,57.70
2018-08-18T18:44:00.424Z,57.60
2018-08-18T18:49:14.113Z,57.00
2018-08-18T18:54:17.255Z,57.50
2018-08-18T18:59:20.405Z,57.30
2018-08-18T19:04:23.529Z,57.50
2018-08-18T19:09:26.836Z,57.70
2018-08-18T19:14:29.984Z,57.80
2018-08-18T19:19:33.113Z,58.30
2018-08-18T19:24:36.242Z,58.40
2018-08-18T19:29:39.365Z,58.90
2018-08-18T19:34:42.500Z,59.10
2018-08-18T19:39:45.648Z,59.30
2018-08-18T19:44:50.254Z,59.60
2018-08-18T19:49:53.378Z,59.90
2018-08-18T19:54:56.511Z,59.70
2018-08-18T20:00:10.868Z,60.70
2018-08-18T20:05:14.006Z,61.10
2018-08-18T20:10:17.305Z,60.60
2018-08-18T20:15:20.436Z,61.20
2018-08-18T20:20:24.433Z,61.00
2018-08-18T20:25:27.553Z,61.40
2018-08-18T20:30:30.673Z,61.90
2018-08-18T20:35:33.800Z,62.10
2018-08-18T20:40:36.916Z,62.00
2018-08-18T20:45:45.464Z,62.10
2018-08-18T20:50:48.764Z,62.40
2018-08-18T20:55:55.372Z,62.60
2018-08-18T21:00:58.492Z,62.80
2018-08-18T21:06:01.618Z,62.80
2018-08-18T21:11:04.832Z,63.10
2018-08-18T21:16:08.153Z,63.50
2018-08-18T21:21:35.397Z,63.30
2018-08-18T21:26:38.518Z,63.90
2018-08-18T21:31:41.662Z,64.10
2018-08-18T21:36:44.820Z,64.10
2018-08-18T21:41:48.588Z,64.00
2018-08-18T21:46:51.712Z,64.30
2018-08-18T21:51:56.733Z,64.30
2018-08-18T21:56:59.855Z,64.80
2018-08-18T22:02:03.017Z,64.50
2018-08-18T22:07:06.526Z,64.70
2018-08-18T22:12:09.660Z,64.80
2018-08-18T22:17:12.816Z,64.80
2018-08-18T22:22:21.240Z,65.00
2018-08-18T22:27:24.382Z,65.20
2018-08-18T22:32:27.511Z,65.00
2018-08-18T22:37:30.644Z,65.10
2018-08-18T22:42:33.764Z,65.20
2018-08-18T22:47:36.916Z,65.40
2018-08-18T22:52:40.033Z,65.80
2018-08-18T22:57:47.578Z,65.90
2018-08-18T23:02:50.977Z,66.00
2018-08-18T23:07:55.509Z,66.40
2018-08-18T23:12:58.820Z,65.40
2018-08-18T23:18:01.969Z,66.50
2018-08-18T23:23:05.110Z,66.60
2018-08-18T23:28:08.266Z,66.50
2018-08-18T23:33:11.429Z,66.30
2018-08-18T23:38:14.550Z,66.90
2018-08-18T23:43:17.685Z,66.40
2018-08-18T23:48:20.956Z,67.20
2018-08-18T23:53:24.085Z,66.30
2018-08-18T23:58:27.413Z,67.10
